Flight Track Log - Related Links

Times and Time Zones

All times are in EDT time to prevent confusion due to time zone crossing. See the SWA2336 flight status page for this flight to view local times or setup timezone preferences in your user account.

Time Position Orientation Groundspeed Altitude Reporting Facility
EDT Latitude Longitude Course Direction KTS MPH feet Rate Location/Type
Mon 06:24:10 PM 39.8742 -104.3456 90° East 309 356 10,700  Level Denver Center
Mon 06:25:12 PM 39.8725 -104.1858 91° East 359 413 13,800 2,661 Climbing Denver Center
Mon 06:26:14 PM 39.8736 -104.0517 89° East 372 428 16,200 2,323 Climbing Denver Center
Mon 06:27:16 PM 39.8728 -103.9075 90° East 399 459 18,600 2,439 Climbing Denver Center
Mon 06:28:00 PM 39.8833 -103.6441 90° East  Level FlightAware Approximate
Mon 06:28:17 PM 39.8825 -103.7500 85° East 409 471 21,200  Level Denver Center
Mon 06:29:19 PM 39.8975 -103.6094 82° East 407 468 23,200 1,839 Climbing Denver Center
Mon 06:30:21 PM 39.9164 -103.4528 81° East 439 505 25,000 1,742 Climbing Denver Center
Mon 06:31:23 PM 39.9339 -103.2919 82° East 447 514 26,800 1,839 Climbing Denver Center
Mon 06:32:25 PM 39.9556 -103.0961 82° East 455 524 28,800 1,694 Climbing Denver Center
Mon 06:33:27 PM 39.9739 -102.9283 82° East 466 536 30,300 1,659 Climbing Denver Center
Mon 06:34:28 PM 39.9917 -102.7592 82° East 471 542 32,200 1,317 Climbing Denver Center
Mon 06:35:30 PM 40.0111 -102.5864 82° East 465 535 33,000 387 Climbing Denver Center
Mon 06:36:32 PM 40.0278 -102.4275 82° East 461 531 33,000 290 Level Denver Center
Mon 06:37:34 PM 40.0464 -102.2447 82° East 457 526 33,600 1,210 Climbing Denver Center
Mon 06:38:36 PM 40.0617 -102.0883 83° East 455 524 35,500 1,500 Climbing Denver Center
Mon 06:39:38 PM 40.0792 -101.9081 83° East 450 518 36,700 1,122 Climbing Denver Center
Mon 06:40:39 PM 40.0961 -101.7511 82° East 456 525 37,800 1,024 Climbing Denver Center
Mon 06:41:41 PM 40.1128 -101.5700 83° East 452 520 38,800 581 Climbing Denver Center
Mon 06:42:43 PM 40.1278 -101.4156 83° East 448 516 39,000 97 Climbing Denver Center
Mon 06:43:45 PM 40.1442 -101.2381 83° East 443 510 39,000  Level Denver Center
Mon 06:44:46 PM 40.1564 -101.1092 83° East 449 517 39,000  Level Denver Center
Mon 06:46:01 PM 40.1778 -100.8792 83° East 446 513 39,000  Level Denver Center
Mon 06:47:03 PM 40.1906 -100.7256 84° East 447 514 39,000  Level Denver Center
Mon 06:48:05 PM 40.2050 -100.5472 84° East 445 512 39,000  Level Denver Center
Mon 06:49:06 PM 40.2067 -100.3919 89° East 449 517 39,000  Level Denver Center
Mon 06:50:08 PM 40.2094 -100.2117 89° East 445 512 39,000  Level Denver Center
Mon 06:51:10 PM 40.2122 -100.0567 89° East 446 513 39,000  Level Denver Center
Mon 06:52:12 PM 40.2283 -99.8786 83° East 445 512 39,000  Level Denver Center
Mon 06:53:14 PM 40.2508 -99.7214 79° East 442 509 39,000  Level Denver Center
Mon 06:54:16 PM 40.2742 -99.5647 79° East 441 507 39,000  Level Denver Center
Mon 06:55:17 PM 40.2972 -99.4086 79° East 438 504 39,000  Level Denver Center
Mon 06:56:19 PM 40.3203 -99.2508 79° East 441 507 39,000  Level Denver Center
Mon 06:57:21 PM 40.3419 -99.0944 80° East 440 506 39,000  Level Denver Center
Mon 06:58:27 PM 40.3372 -98.9011 92° East 447 514 39,000  Level Minneapolis Center
Mon 06:59:29 PM 40.3592 -98.7439 80° East 444 511 39,000  Level Minneapolis Center
Mon 07:00:31 PM 40.3783 -98.5858 81° East 442 509 39,000  Level Minneapolis Center
Mon 07:01:33 PM 40.3986 -98.4278 80° East 442 509 39,000  Level Minneapolis Center
Mon 07:02:35 PM 40.4217 -98.2367 81° East 444 511 39,000  Level Minneapolis Center
Mon 07:03:37 PM 40.4408 -98.0781 81° East 443 510 39,000  Level Minneapolis Center
Mon 07:04:39 PM 40.4600 -97.9206 81° East 442 509 39,000  Level Minneapolis Center
Mon 07:05:41 PM 40.4789 -97.7631 81° East 440 506 39,000  Level Minneapolis Center
Mon 07:06:43 PM 40.4989 -97.6061 80° East 439 505 39,000  Level Minneapolis Center
Mon 07:07:46 PM 40.5194 -97.4158 82° East 439 505 39,000  Level Minneapolis Center
Mon 07:08:48 PM 40.5375 -97.2586 81° East 439 505 39,000  Level Minneapolis Center
Mon 07:09:50 PM 40.5567 -97.1019 81° East 438 504 39,000  Level Minneapolis Center
Mon 07:10:52 PM 40.5747 -96.9419 81° East 439 505 39,000  Level Minneapolis Center
Mon 07:11:54 PM 40.5922 -96.7836 82° East 440 506 39,000  Level Minneapolis Center
Mon 07:12:56 PM 40.6097 -96.6244 82° East 440 506 39,000  Level Minneapolis Center
Mon 07:13:58 PM 40.6300 -96.4331 82° East 442 509 39,000  Level Minneapolis Center
Mon 07:15:12 PM 40.6467 -96.2731 82° East 443 510 39,000  Level Minneapolis Center
Mon 07:16:14 PM 40.6669 -96.0831 82° East 441 507 39,000  Level Minneapolis Center
Mon 07:17:16 PM 40.6839 -95.9258 82° East 438 504 39,000  Level Minneapolis Center
Mon 07:18:18 PM 40.6992 -95.7675 83° East 439 505 39,000  Level Minneapolis Center
Mon 07:19:20 PM 40.7192 -95.5758 82° East 442 509 39,000  Level Minneapolis Center
Mon 07:20:22 PM 40.7356 -95.4156 82° East 444 511 39,000  Level Minneapolis Center
Mon 07:21:24 PM 40.7514 -95.2575 82° East 441 507 39,000  Level Minneapolis Center
Mon 07:22:26 PM 40.7667 -95.0950 83° East 444 511 39,000  Level Minneapolis Center
Mon 07:23:28 PM 40.7822 -94.9350 83° East 443 510 39,000  Level Minneapolis Center
Mon 07:24:30 PM 40.7975 -94.7736 83° East 445 512 39,000  Level Minneapolis Center
Mon 07:25:31 PM 40.8153 -94.5800 83° East 444 511 39,000  Level Minneapolis Center
Mon 07:26:33 PM 40.8269 -94.4383 84° East 441 507 39,000  Level Minneapolis Center
Mon 07:27:35 PM 40.8403 -94.2786 84° East 442 509 39,000  Level Minneapolis Center
Mon 07:28:37 PM 40.8553 -94.1181 83° East 443 510 39,000  Level Minneapolis Center
Mon 07:29:38 PM 40.8722 -93.9242 83° East 445 512 39,000  Level Minneapolis Center
Mon 07:30:40 PM 40.8856 -93.7608 84° East 448 516 39,000  Level Minneapolis Center
Mon 07:31:42 PM 40.8997 -93.5961 83° East 452 520 39,000  Level Minneapolis Center
Mon 07:32:43 PM 40.9125 -93.4331 84° East 451 519 39,000  Level Minneapolis Center
Mon 07:33:45 PM 40.9272 -93.2686 83° East 451 519 39,000 -242 Level Minneapolis Center
Mon 07:34:47 PM 40.9400 -93.1017 84° East 453 521 38,500 -823 Descending Chicago Center
Mon 07:35:49 PM 40.9544 -92.9058 84° East 448 516 37,300 -1,016 Descending Chicago Center
Mon 07:36:51 PM 40.9683 -92.7428 84° East 448 516 36,400 -919 Descending Chicago Center
Mon 07:37:53 PM 40.9789 -92.5789 85° East 448 516 35,400 -968 Descending Chicago Center
Mon 07:38:55 PM 40.9914 -92.4172 84° East 444 511 34,400 -968 Descending Chicago Center
Mon 07:39:57 PM 41.0025 -92.2542 85° East 446 513 33,400 -1,403 Descending Chicago Center
Mon 07:40:59 PM 41.0142 -92.0961 84° East 436 502 31,500 -1,790 Descending Chicago Center
Mon 07:42:01 PM 41.0269 -91.9108 85° East 423 487 29,700 -1,597 Descending Chicago Center
Mon 07:43:03 PM 41.0369 -91.7581 85° East 420 483 28,200 -1,355 Descending Chicago Center
Mon 07:44:05 PM 41.0461 -91.6142 85° East 409 471 26,900 -1,065 Descending Chicago Center
Mon 07:45:07 PM 41.0561 -91.4653 85° East 404 465 26,000 -871 Descending Chicago Center
Mon 07:46:09 PM 41.0650 -91.3114 86° East 418 481 25,100 -968 Descending Chicago Center
Mon 07:47:11 PM 41.0775 -91.1250 85° East 422 486 24,000 -532 Descending Chicago Center
Mon 07:48:13 PM 41.0856 -90.9750 86° East 412 474 24,000  Level Chicago Center
Mon 07:49:15 PM 41.0953 -90.8233 85° East 412 474 24,000 -290 Level Chicago Center
Mon 07:50:17 PM 41.1028 -90.6711 86° East 413 475 23,400 -768 Descending Chicago Center
Mon 07:51:20 PM 41.1117 -90.5197 85° East 410 472 22,400 -960 Descending Chicago Center
Mon 07:52:22 PM 41.1206 -90.3703 85° East 407 468 21,400 -1,065 Descending Chicago Center
Mon 07:53:24 PM 41.1297 -90.1917 86° East 404 465 20,200 -1,452 Descending Chicago Center
Mon 07:54:26 PM 41.1372 -90.0447 86° East 399 459 18,400 -1,935 Descending Chicago Center
Mon 07:55:28 PM 41.1453 -89.9031 86° East 388 447 16,200 -1,645 Descending Chicago Center
Mon 07:56:30 PM 41.1522 -89.7656 86° East 378 435 15,000 -581 Descending Chicago Center
Mon 07:57:32 PM 41.1581 -89.6344 87° East 360 414 15,000 -145 Level Chicago Center
Mon 07:58:34 PM 41.1658 -89.5019 85° East 360 414 14,700 -629 Descending Chicago Center
Mon 07:59:36 PM 41.1750 -89.3686 85° East 362 417 13,700 -968 Descending Chicago Center
Mon 08:00:38 PM 41.1847 -89.2378 84° East 357 411 12,700 -1,016 Descending Chicago Center
Mon 08:01:40 PM 41.1931 -89.0906 86° East 350 403 11,600 -1,065 Descending Chicago Center
Mon 08:02:42 PM 41.2022 -88.9642 84° East 346 398 10,500 -774 Descending Chicago Center
Mon 08:03:44 PM 41.2097 -88.8461 85° East 330 380 10,000 -629 Descending Chicago Center
Mon 08:04:46 PM 41.2167 -88.7061 86° East 319 367 9,200 -968 Descending Chicago Center
Mon 08:05:48 PM 41.2608 -88.6233 55° Northeast 287 330 8,000 -1,048 Descending Chicago Center
Mon 08:06:52 PM 41.3225 -88.5569 39° Northeast 286 329 7,000 -480 Descending Chicago Center
Mon 08:07:53 PM 41.3819 -88.4936 39° Northeast 277 319 7,000 -293 Level Chicago Center
Mon 08:08:55 PM 41.4406 -88.4306 39° Northeast 272 313 6,400 -484 Descending Chicago Center
Mon 08:09:57 PM 41.4939 -88.3592 45° Northeast 272 313 6,000 -484 Descending Chicago Center
Mon 08:10:59 PM 41.5394 -88.2522 60° Northeast 276 318 5,400 -774 Descending Chicago Center
Mon 08:12:01 PM 41.5783 -88.1628 60° Northeast 276 318 4,400 -677 Descending Chicago Center
Mon 08:13:03 PM 41.6156 -88.0750 60° Northeast 272 313 4,000 -532 Descending Chicago Center
Mon 08:14:05 PM 41.6517 -87.9908 60° Northeast 267 307 3,300 -726 Descending Chicago Center
Mon 08:15:07 PM 41.6819 -87.9186 61° Northeast 242 278 2,500 -387 Descending Chicago Center
Mon 08:16:09 PM 41.7072 -87.8586 61° Northeast 211 243 2,500 -339 Level Chicago Center
Mon 08:17:11 PM 41.7344 -87.8172 49° Northeast 172 198 1,800 -726 Descending Chicago Center
Mon 08:18:13 PM 41.7653 -87.7789 43° Northeast 139 160 1,000 -435 Descending Chicago Center
Mon 08:19:15 PM 41.7900 -87.7464 44° Northeast 137 158 900 -97 Descending Chicago Center

Login

Don't have an account? Register now (free) for customized features, flight alerts, and more!